Terminal Aerodrome Forecast
Issued by NWS

Home | Current Version | Previous Version | Text Only | Print | Product List | Glossary On
Versions: 1 2 3 4 5 6 7 8 9 10 11 12 13
000
FTUS42 TJSJ 241700
TAFIST
TAF
TIST 241738Z 2418/2518 15012KT P6SM VCSH FEW025 SCT040
     FM242300 13008KT P6SM FEW030
     FM250600 10003KT P6SM VCSH SCT025
     FM251400 14012KT P6SM FEW030=

USA.gov is the U.S. government's official web portal to all federal, state and local government web resources and services.